Belgium, New York
Current Conditions -  °F | °C
As of 4:33 PM on Wednesday 26 Nov 2014 (Local Time) from KFZY Reporting Station
Light Snow Light Snow  
Wind Chill: -5°   Ceiling: 1200
Heat Index:   Visibility: 1mi
Dew Point: -2°   Wind: 10mph
Humidity: 85%   Direction: 20°NNE
Pressure: 30.09"   Gusts: NA
Location:  43.1825°N, 76.3664°W
Report Text: KFZY 262133Z AUTO 02009KT 1SM -SN BR SCT006 OVC012 00/M02 A3009 RMK AO2 P0001 T00001022
Loading
Personal Weather Stations






























Interactive Weather Map New forecast layout! Learn more

10-Day Weather Forecast

Advertisements
Track Severe Weather on mobile